sensor_id;sensor_type;location;lat;lon;timestamp;pressure;altitude;pressure_sealevel;temperature;humidity
67545;BME280;54380;47.770;11.150;2024-01-25T19:32:05;95895.44;;;8.82;65.35
67545;BME280;54380;47.770;11.150;2024-01-25T19:34:31;95899.88;;;8.82;66.03
67545;BME280;54380;47.770;11.150;2024-01-25T19:36:58;95900.91;;;8.81;65.80
67545;BME280;54380;47.770;11.150;2024-01-25T19:39:25;95898.28;;;8.81;65.67
67545;BME280;54380;47.770;11.150;2024-01-25T19:41:52;95894.25;;;8.78;65.71
67545;BME280;54380;47.770;11.150;2024-01-25T19:44:19;95898.09;;;8.75;66.68
67545;BME280;54380;47.770;11.150;2024-01-25T19:46:46;95894.88;;;8.73;66.04
67545;BME280;54380;47.770;11.150;2024-01-25T19:49:14;95888.19;;;8.71;66.07
67545;BME280;54380;47.770;11.150;2024-01-25T19:51:41;95884.16;;;8.68;66.46
67545;BME280;54380;47.770;11.150;2024-01-25T19:54:08;95895.94;;;8.66;66.22
67545;BME280;54380;47.770;11.150;2024-01-25T19:56:35;95889.28;;;8.63;66.27
67545;BME280;54380;47.770;11.150;2024-01-25T19:59:03;95889.50;;;8.62;66.41
67545;BME280;54380;47.770;11.150;2024-01-25T20:01:29;95889.31;;;8.56;66.76
67545;BME280;54380;47.770;11.150;2024-01-25T20:03:56;95892.38;;;8.53;66.88
67545;BME280;54380;47.770;11.150;2024-01-25T20:06:26;95890.75;;;8.52;66.74
67545;BME280;54380;47.770;11.150;2024-01-25T20:08:53;95894.41;;;8.51;67.67
67545;BME280;54380;47.770;11.150;2024-01-25T20:11:20;95897.25;;;8.50;66.97
67545;BME280;54380;47.770;11.150;2024-01-25T20:13:47;95898.88;;;8.51;67.45
67545;BME280;54380;47.770;11.150;2024-01-25T20:16:17;95900.69;;;8.50;67.41
67545;BME280;54380;47.770;11.150;2024-01-25T20:18:45;95893.22;;;8.47;67.42
67545;BME280;54380;47.770;11.150;2024-01-25T20:21:14;95888.97;;;8.46;67.22
67545;BME280;54380;47.770;11.150;2024-01-25T20:23:45;95890.59;;;8.47;67.17
67545;BME280;54380;47.770;11.150;2024-01-25T20:26:12;95896.88;;;8.46;67.67
67545;BME280;54380;47.770;11.150;2024-01-25T20:28:49;95890.00;;;8.45;67.73
67545;BME280;54380;47.770;11.150;2024-01-25T20:31:19;95893.44;;;8.46;67.82
67545;BME280;54380;47.770;11.150;2024-01-25T20:33:47;95894.25;;;8.46;67.74
67545;BME280;54380;47.770;11.150;2024-01-25T20:36:15;95896.88;;;8.46;67.54
67545;BME280;54380;47.770;11.150;2024-01-25T20:38:44;95889.41;;;8.43;67.79
67545;BME280;54380;47.770;11.150;2024-01-25T20:41:11;95887.78;;;8.42;67.80
67545;BME280;54380;47.770;11.150;2024-01-25T20:43:45;95891.44;;;8.41;68.25
67545;BME280;54380;47.770;11.150;2024-01-25T20:46:12;95888.59;;;8.43;68.49
67545;BME280;54380;47.770;11.150;2024-01-25T20:48:40;95892.25;;;8.42;68.29
67545;BME280;54380;47.770;11.150;2024-01-25T20:51:08;95889.84;;;8.40;68.29
67545;BME280;54380;47.770;11.150;2024-01-25T20:53:35;95891.63;;;8.40;68.64
67545;BME280;54380;47.770;11.150;2024-01-25T20:56:05;95890.63;;;8.41;68.52
67545;BME280;54380;47.770;11.150;2024-01-25T20:58:33;95899.13;;;8.43;68.35
67545;BME280;54380;47.770;11.150;2024-01-25T21:01:03;95892.03;;;8.43;67.95
67545;BME280;54380;47.770;11.150;2024-01-25T21:03:31;95899.72;;;8.45;67.77
67545;BME280;54380;47.770;11.150;2024-01-25T21:05:58;95899.50;;;8.46;67.67
67545;BME280;54380;47.770;11.150;2024-01-25T21:08:26;95898.47;;;8.47;68.28
67545;BME280;54380;47.770;11.150;2024-01-25T21:10:53;95894.84;;;8.48;67.58
67545;BME280;54380;47.770;11.150;2024-01-25T21:13:23;95889.16;;;8.51;67.63
67545;BME280;54380;47.770;11.150;2024-01-25T21:15:50;95888.13;;;8.52;67.39
67545;BME280;54380;47.770;11.150;2024-01-25T21:18:17;95888.94;;;8.53;67.42
67545;BME280;54380;47.770;11.150;2024-01-25T21:20:44;95886.91;;;8.55;67.53
67545;BME280;54380;47.770;11.150;2024-01-25T21:23:13;95889.09;;;8.58;67.00
67545;BME280;54380;47.770;11.150;2024-01-25T21:25:39;95885.25;;;8.61;67.16
67545;BME280;54380;47.770;11.150;2024-01-25T21:28:06;95883.44;;;8.61;67.31
67545;BME280;54380;47.770;11.150;2024-01-25T21:30:49;95876.53;;;8.60;66.95
67545;BME280;54380;47.770;11.150;2024-01-25T21:33:16;95879.97;;;8.61;67.03
67545;BME280;54380;47.770;11.150;2024-01-25T21:35:43;95876.78;;;8.59;66.82
67545;BME280;54380;47.770;11.150;2024-01-25T21:38:10;95880.41;;;8.57;67.40
67545;BME280;54380;47.770;11.150;2024-01-25T21:40:37;95876.97;;;8.57;67.83
67545;BME280;54380;47.770;11.150;2024-01-25T21:43:04;95873.97;;;8.53;67.75
67545;BME280;54380;47.770;11.150;2024-01-25T21:45:33;95876.44;;;8.48;67.69
67545;BME280;54380;47.770;11.150;2024-01-25T21:48:10;95873.19;;;8.46;68.25
67545;BME280;54380;47.770;11.150;2024-01-25T21:50:37;95875.81;;;8.46;68.20
67545;BME280;54380;47.770;11.150;2024-01-25T21:53:04;95870.56;;;8.46;68.66
67545;BME280;54380;47.770;11.150;2024-01-25T21:55:31;95879.50;;;8.45;68.74
67545;BME280;54380;47.770;11.150;2024-01-25T21:57:58;95882.31;;;8.44;68.80
67545;BME280;54380;47.770;11.150;2024-01-25T22:00:26;95881.09;;;8.46;68.76
67545;BME280;54380;47.770;11.150;2024-01-25T22:02:54;95884.31;;;8.48;68.74
67545;BME280;54380;47.770;11.150;2024-01-25T22:05:23;95880.06;;;8.47;68.91
67545;BME280;54380;47.770;11.150;2024-01-25T22:07:51;95886.16;;;8.48;68.93
67545;BME280;54380;47.770;11.150;2024-01-25T22:10:20;95896.06;;;8.46;68.61
67545;BME280;54380;47.770;11.150;2024-01-25T22:12:48;95882.69;;;8.47;68.72
67545;BME280;54380;47.770;11.150;2024-01-25T22:15:15;95877.44;;;8.47;68.91
67545;BME280;54380;47.770;11.150;2024-01-25T22:17:42;95880.88;;;8.48;69.18
67545;BME280;54380;47.770;11.150;2024-01-25T22:20:10;95881.69;;;8.48;68.85
67545;BME280;54380;47.770;11.150;2024-01-25T22:22:39;95876.63;;;8.47;69.24
67545;BME280;54380;47.770;11.150;2024-01-25T22:25:07;95878.47;;;8.46;68.35
67545;BME280;54380;47.770;11.150;2024-01-25T22:27:34;95877.44;;;8.47;68.86
67545;BME280;54380;47.770;11.150;2024-01-25T22:30:01;95880.66;;;8.49;68.94
67545;BME280;54380;47.770;11.150;2024-01-25T22:32:29;95877.59;;;8.52;68.90
67545;BME280;54380;47.770;11.150;2024-01-25T22:34:55;95869.72;;;8.52;68.67
67545;BME280;54380;47.770;11.150;2024-01-25T22:37:22;95867.31;;;8.51;68.58
67545;BME280;54380;47.770;11.150;2024-01-25T22:39:51;95876.19;;;8.50;68.04
67545;BME280;54380;47.770;11.150;2024-01-25T22:42:18;95869.72;;;8.52;68.49
67545;BME280;54380;47.770;11.150;2024-01-25T22:44:44;95871.34;;;8.53;68.76
67545;BME280;54380;47.770;11.150;2024-01-25T22:47:11;95866.66;;;8.55;68.31
67545;BME280;54380;47.770;11.150;2024-01-25T22:49:38;95868.28;;;8.56;68.23
67545;BME280;54380;47.770;11.150;2024-01-25T22:52:05;95869.28;;;8.55;68.22
67545;BME280;54380;47.770;11.150;2024-01-25T22:54:32;95863.00;;;8.56;69.00
67545;BME280;54380;47.770;11.150;2024-01-25T22:57:01;95869.06;;;8.57;69.20
67545;BME280;54380;47.770;11.150;2024-01-25T22:59:28;95869.06;;;8.57;69.31
67545;BME280;54380;47.770;11.150;2024-01-25T23:01:55;95864.00;;;8.55;69.29
67545;BME280;54380;47.770;11.150;2024-01-25T23:04:22;95858.19;;;8.53;69.14
67545;BME280;54380;47.770;11.150;2024-01-25T23:06:49;95857.34;;;8.53;68.84
67545;BME280;54380;47.770;11.150;2024-01-25T23:09:17;95859.19;;;8.52;69.35
67545;BME280;54380;47.770;11.150;2024-01-25T23:11:44;95861.81;;;8.52;69.05
67545;BME280;54380;47.770;11.150;2024-01-25T23:14:13;95870.75;;;8.51;69.07
67545;BME280;54380;47.770;11.150;2024-01-25T23:16:40;95877.00;;;8.50;68.77
67545;BME280;54380;47.770;11.150;2024-01-25T23:19:07;95875.63;;;8.48;68.38
67545;BME280;54380;47.770;11.150;2024-01-25T23:21:33;95873.00;;;8.48;68.25
67545;BME280;54380;47.770;11.150;2024-01-25T23:24:01;95863.66;;;8.52;68.39
67545;BME280;54380;47.770;11.150;2024-01-25T23:26:28;95860.38;;;8.56;67.86
67545;BME280;54380;47.770;11.150;2024-01-25T23:28:55;95858.56;;;8.57;68.42
67545;BME280;54380;47.770;11.150;2024-01-25T23:31:27;95853.72;;;8.54;68.39
67545;BME280;54380;47.770;11.150;2024-01-25T23:33:53;95846.47;;;8.49;68.56
67545;BME280;54380;47.770;11.150;2024-01-25T23:36:30;95842.25;;;8.42;68.98
67545;BME280;54380;47.770;11.150;2024-01-25T23:39:14;95850.75;;;8.37;68.95
67545;BME280;54380;47.770;11.150;2024-01-25T23:41:55;95851.41;;;8.32;69.67
67545;BME280;54380;47.770;11.150;2024-01-25T23:44:35;95847.94;;;8.32;69.87
